Flight Track Log - Related Links

Times and Time Zones

All times are in EDT time to prevent confusion due to time zone crossing. See the JAL1272 flight status page for this flight to view local times or setup timezone preferences in your user account.

Time Position Orientation Groundspeed Altitude Reporting Facility
EDT Latitude Longitude Course Direction KTS MPH feet Rate Location/Type
Mon 08:56:00 PM 36.3351 136.6575 106° East  Level Estimated
Mon 08:57:00 PM 36.3155 136.7407 106° East  Level Estimated
Mon 08:58:00 PM 36.2958 136.8239 106° East  Level Estimated
Mon 08:59:00 PM 36.2761 136.9069 106° East  Level Estimated
Mon 09:00:00 PM 36.2563 136.9900 106° East  Level Estimated
Mon 09:01:00 PM 36.2365 137.0730 106° East  Level Estimated
Mon 09:02:00 PM 36.2156 137.1602 107° East  Level Estimated
Mon 09:03:00 PM 36.1946 137.2474 107° East  Level Estimated
Mon 09:04:00 PM 36.1735 137.3345 107° East  Level Estimated
Mon 09:05:00 PM 36.1524 137.4216 107° East  Level Estimated
Mon 09:06:00 PM 36.1313 137.5086 107° East  Level Estimated
Mon 09:07:00 PM 36.1100 137.5956 107° East  Level Estimated
Mon 09:08:00 PM 36.0887 137.6825 107° East  Level Estimated
Mon 09:09:00 PM 36.0674 137.7694 107° East  Level Estimated
Mon 09:10:00 PM 36.0459 137.8562 107° East  Level Estimated
Mon 09:11:00 PM 36.0244 137.9430 107° East  Level Estimated
Mon 09:12:00 PM 36.0029 138.0298 107° East  Level Estimated
Mon 09:13:00 PM 35.9813 138.1165 107° East  Level Estimated
Mon 09:14:00 PM 35.9596 138.2031 107° East  Level Estimated
Mon 09:15:00 PM 35.9379 138.2897 107° East  Level Estimated
Mon 09:16:00 PM 35.9161 138.3763 107° East  Level Estimated
Mon 09:17:00 PM 35.8942 138.4628 107° East  Level Estimated
Mon 09:18:00 PM 35.8723 138.5493 107° East  Level Estimated
Mon 09:19:00 PM 35.8503 138.6357 107° East  Level Estimated
Mon 09:20:00 PM 35.8283 138.7220 107° East  Level Estimated
Mon 09:21:00 PM 35.8062 138.8083 108° East  Level Estimated
Mon 09:22:00 PM 35.7840 138.8946 108° East  Level Estimated
Mon 09:23:00 PM 35.7618 138.9808 108° East  Level Estimated
Mon 09:24:00 PM 35.7395 139.0670 108° East  Level Estimated
Mon 09:25:00 PM 35.7177 139.1510 108° East  Level Estimated
Mon 09:26:00 PM 35.6958 139.2349 108° East  Level Estimated
Mon 09:27:00 PM 35.6739 139.3188 108° East  Level Estimated
Mon 09:28:00 PM 35.6520 139.4026 108° East  Level Estimated
Mon 09:29:00 PM 35.6299 139.4864 108° East  Level Estimated
Mon 09:30:00 PM 35.6078 139.5701 108° East  Level Estimated
Mon 09:31:00 PM 35.5851 139.6560 108° East  Level Estimated
Mon 09:32:00 PM 35.5624 139.7418 108° East  Level Estimated
Mon 09:33:00 PM 35.5523 139.7797 108° East  Level Estimated
Mon 09:34:00 PM 35.5523 139.7797 122° Southeast  Level Estimated
Mon 09:35:00 PM 35.5523 139.7797 122° Southeast  Level Estimated
Mon 09:36:00 PM 35.5523 139.7797 122° Southeast  Level Estimated
Mon 09:37:00 PM 35.5523 139.7797 122° Southeast  Level Estimated
Mon 09:38:00 PM 35.5523 139.7797 122° Southeast  Level Estimated
Mon 09:39:00 PM 35.5523 139.7797 122° Southeast  Level Estimated
Mon 09:40:00 PM 35.5523 139.7797 122° Southeast  Level Estimated
Mon 09:41:00 PM 35.5523 139.7797 122° Southeast  Level Estimated
Mon 09:42:00 PM 35.5523 139.7797 122° Southeast  Level Estimated
Mon 09:43:00 PM 35.5523 139.7797 122° Southeast  Level Estimated
Mon 09:44:00 PM 35.5523 139.7797 122° Southeast  Level Estimated
Mon 09:45:00 PM 35.5523 139.7797 122° Southeast  Level Estimated

Login

Don't have an account? Register now (free) for customized features, flight alerts, and more!